Time;durP1;ratioP1;P1;durP2;ratioP2;P2;SDS_P1;SDS_P2;PMS_P1;PMS_P2;Temp;Humidity;BMP_temperature;BMP_pressure;BME280_temperature;BME280_humidity;BME280_pressure;Samples;Min_cycle;Max_cycle;Signal;HPM_P1;HPM_P2
2021/09/11 00:00:25;;;;;;;;;;;;;;;18.46;90.53;101511.59;5074370;28;19908;-35
2021/09/11 00:02:50;;;;;;;;;;;;;;;18.46;90.57;101512.41;5074762;28;20241;-35
2021/09/11 00:05:16;;;;;;;;;;;;;;;18.46;90.55;101515.16;5074433;28;19909;-35
2021/09/11 00:07:41;;;;;;;;;;;;;;;18.45;90.49;101513.53;5074863;28;19913;-35
2021/09/11 00:10:08;;;;;;;;;;;;;;;18.45;90.57;101521.72;5073897;28;20007;-35
2021/09/11 00:12:35;;;;;;;;;;;;;;;18.44;90.38;101514.59;5074448;28;19908;-35
2021/09/11 00:15:01;;;;;;;;;;;;;;;18.42;90.26;101510.47;5073819;28;19915;-35
2021/09/11 00:17:26;;;;;;;;;;;;;;;18.37;90.01;101507.72;5074389;28;19912;-35
2021/09/11 00:19:51;;;;;;;;;;;;;;;18.35;90.09;101505.25;5073769;28;19954;-35
2021/09/11 00:22:16;;;;;;;;;;;;;;;18.32;89.63;101507.69;5074029;28;20360;-35
2021/09/11 00:24:42;;;;;;;;;;;;;;;18.26;89.74;101510.41;5073634;28;20367;-35
2021/09/11 00:27:07;;;;;;;;;;;;;;;18.24;89.79;101500.81;5073478;28;19919;-35
2021/09/11 00:29:32;;;;;;;;;;;;;;;18.22;89.85;101503.00;5073382;28;19923;-35
2021/09/11 00:31:58;;;;;;;;;;;;;;;18.19;89.39;101495.31;5073569;28;19915;-35
2021/09/11 00:34:24;;;;;;;;;;;;;;;18.18;89.56;101502.69;5073910;28;19909;-35
2021/09/11 00:36:49;;;;;;;;;;;;;;;18.17;89.51;101492.84;5073859;28;19915;-35
2021/09/11 00:39:14;;;;;;;;;;;;;;;18.14;89.52;101496.09;5073546;28;19930;-35
2021/09/11 00:41:40;;;;;;;;;;;;;;;18.10;89.23;101496.91;5073582;28;19916;-35
2021/09/11 00:44:05;;;;;;;;;;;;;;;18.07;89.81;101494.72;5073146;28;19918;-35
2021/09/11 00:46:30;;;;;;;;;;;;;;;18.00;89.53;101494.94;5074154;28;19912;-35
2021/09/11 00:48:56;;;;;;;;;;;;;;;17.95;89.73;101500.38;5073679;28;19912;-35
2021/09/11 00:51:21;;;;;;;;;;;;;;;17.89;89.62;101502.25;5073902;28;19970;-35
2021/09/11 00:53:46;;;;;;;;;;;;;;;17.86;89.38;101502.81;5073448;28;19913;-35
2021/09/11 00:56:12;;;;;;;;;;;;;;;17.83;89.53;101503.31;5073642;28;19908;-35
2021/09/11 00:58:38;;;;;;;;;;;;;;;17.78;89.30;101499.72;5073073;28;19957;-35
2021/09/11 01:01:03;;;;;;;;;;;;;;;17.77;89.34;101500.81;5073659;28;19908;-35
2021/09/11 01:03:28;;;;;;;;;;;;;;;17.73;89.09;101503.25;5071840;28;20320;-35
2021/09/11 01:05:54;;;;;;;;;;;;;;;17.71;89.03;101505.38;5073217;28;19908;-35
2021/09/11 01:08:19;;;;;;;;;;;;;;;17.65;88.80;101503.69;5071886;28;19908;-35
2021/09/11 01:10:44;;;;;;;;;;;;;;;17.63;88.89;101512.16;5073969;28;19950;-35
2021/09/11 01:13:10;;;;;;;;;;;;;;;17.61;88.97;101508.03;5073679;28;19908;-35
2021/09/11 01:15:37;;;;;;;;;;;;;;;17.59;88.61;101512.97;5073154;28;19908;-35
2021/09/11 01:18:03;;;;;;;;;;;;;;;17.56;88.81;101505.25;5074152;28;19980;-35
2021/09/11 01:20:28;;;;;;;;;;;;;;;17.49;88.82;101506.31;5072828;28;19940;-35
2021/09/11 01:22:54;;;;;;;;;;;;;;;17.44;88.36;101498.06;5073480;28;20350;-35
2021/09/11 01:25:19;;;;;;;;;;;;;;;17.40;88.64;101501.59;5073075;28;19965;-35
2021/09/11 01:27:44;;;;;;;;;;;;;;;17.39;88.69;101502.69;5073240;28;20248;-35
2021/09/11 01:30:14;;;;;;;;;;;;;;;17.36;88.62;101500.44;5073365;28;20332;-35
2021/09/11 01:32:39;;;;;;;;;;;;;;;17.32;88.28;101511.06;5073456;28;19997;-35
2021/09/11 01:35:05;;;;;;;;;;;;;;;17.26;88.21;101506.66;5073030;28;19977;-35
2021/09/11 01:37:30;;;;;;;;;;;;;;;17.24;88.22;101511.56;5073496;28;19954;-35
2021/09/11 01:39:55;;;;;;;;;;;;;;;17.21;88.18;101515.63;5072697;28;19912;-35
2021/09/11 01:42:22;;;;;;;;;;;;;;;17.20;88.20;101519.44;5073859;28;19915;-35
2021/09/11 01:44:55;;;;;;;;;;;;;;;17.18;88.50;101513.44;5071286;28;19924;-35
2021/09/11 01:47:20;;;;;;;;;;;;;;;17.14;88.43;101514.22;5073354;28;19955;-35
2021/09/11 01:49:45;;;;;;;;;;;;;;;17.13;88.37;101515.25;5072795;28;19908;-35
2021/09/11 01:52:11;;;;;;;;;;;;;;;17.09;88.29;101517.72;5073073;28;19915;-35
2021/09/11 01:54:37;;;;;;;;;;;;;;;17.02;88.29;101524.44;5073248;28;20249;-35
2021/09/11 01:57:02;;;;;;;;;;;;;;;16.97;88.04;101520.59;5073127;28;19908;-35
2021/09/11 01:59:27;;;;;;;;;;;;;;;16.95;88.28;101528.22;5072828;28;19930;-35
2021/09/11 02:01:52;;;;;;;;;;;;;;;16.93;88.29;101518.63;5073539;28;19908;-35
2021/09/11 02:04:18;;;;;;;;;;;;;;;16.83;88.53;101522.06;5072912;28;19939;-35
2021/09/11 02:06:43;;;;;;;;;;;;;;;16.80;88.25;101522.59;5072636;28;20019;-35
2021/09/11 02:09:08;;;;;;;;;;;;;;;16.78;88.38;101527.47;5074002;28;19951;-35
2021/09/11 02:11:33;;;;;;;;;;;;;;;16.77;88.50;101523.09;5076318;28;19952;-35
2021/09/11 02:13:59;;;;;;;;;;;;;;;16.76;88.57;101524.19;5076200;28;19908;-35
2021/09/11 02:16:24;;;;;;;;;;;;;;;16.77;88.78;101522.28;5076604;28;19977;-35
2021/09/11 02:18:49;;;;;;;;;;;;;;;16.76;88.57;101520.63;5076684;28;19916;-35
2021/09/11 02:21:14;;;;;;;;;;;;;;;16.75;88.57;101525.28;5076373;28;19908;-35
2021/09/11 02:23:39;;;;;;;;;;;;;;;16.70;88.70;101517.00;5076535;28;19912;-35
2021/09/11 02:26:05;;;;;;;;;;;;;;;16.66;89.20;101516.66;5076514;28;19908;-35
2021/09/11 02:28:30;;;;;;;;;;;;;;;16.66;88.75;101518.56;5076630;28;19908;-35
2021/09/11 02:30:55;;;;;;;;;;;;;;;16.62;88.78;101518.25;5075917;28;19908;-35
2021/09/11 02:33:20;;;;;;;;;;;;;;;16.60;88.92;101525.88;5076062;28;20302;-35
2021/09/11 02:35:45;;;;;;;;;;;;;;;16.58;89.13;101525.28;5075768;28;20459;-35
2021/09/11 02:38:11;;;;;;;;;;;;;;;16.58;88.93;101527.19;5075461;28;19999;-35
2021/09/11 02:40:36;;;;;;;;;;;;;;;16.57;89.11;101531.84;5075625;28;20472;-34
2021/09/11 02:43:01;;;;;;;;;;;;;;;16.56;89.03;101526.66;5075568;28;20268;-35
2021/09/11 02:45:26;;;;;;;;;;;;;;;16.52;89.56;101529.06;5075714;28;20332;-35
2021/09/11 02:47:51;;;;;;;;;;;;;;;16.48;89.26;101528.72;5075515;28;19908;-35
2021/09/11 02:50:17;;;;;;;;;;;;;;;16.47;89.05;101534.44;5074285;28;19920;-35
2021/09/11 02:52:42;;;;;;;;;;;;;;;16.44;89.38;101530.31;5075325;28;19923;-35
2021/09/11 02:55:07;;;;;;;;;;;;;;;16.43;89.09;101527.84;5075007;28;19908;-35
2021/09/11 02:57:33;;;;;;;;;;;;;;;16.43;89.18;101533.28;5075362;28;20058;-34
2021/09/11 02:59:58;;;;;;;;;;;;;;;16.36;89.53;101522.56;5075202;28;19915;-35
2021/09/11 03:02:23;;;;;;;;;;;;;;;16.36;90.07;101525.31;5075518;28;19943;-35
2021/09/11 03:04:48;;;;;;;;;;;;;;;16.34;89.75;101526.63;5075069;28;20087;-35
2021/09/11 03:07:13;;;;;;;;;;;;;;;16.32;89.23;101521.44;5075115;28;19912;-35
2021/09/11 03:09:39;;;;;;;;;;;;;;;16.31;89.39;101530.69;5073927;28;19908;-35
2021/09/11 03:12:04;;;;;;;;;;;;;;;16.31;89.46;101519.78;5075559;28;20259;-35
2021/09/11 03:14:29;;;;;;;;;;;;;;;16.28;89.50;101514.81;5074592;28;19915;-35
2021/09/11 03:16:54;;;;;;;;;;;;;;;16.27;89.42;101510.44;5075046;28;19954;-35
2021/09/11 03:19:20;;;;;;;;;;;;;;;16.28;89.14;101514.00;5074738;28;19908;-35
2021/09/11 03:21:45;;;;;;;;;;;;;;;16.26;89.03;101513.44;5074606;28;19951;-35
2021/09/11 03:24:10;;;;;;;;;;;;;;;16.25;89.35;101511.75;5074593;28;19908;-35
2021/09/11 03:26:35;;;;;;;;;;;;;;;16.21;89.12;101517.75;5074666;28;19908;-35
2021/09/11 03:29:00;;;;;;;;;;;;;;;16.18;89.27;101518.22;5074650;28;20002;-35
2021/09/11 03:31:26;;;;;;;;;;;;;;;16.16;89.22;101517.66;5074983;28;20010;-35
2021/09/11 03:33:51;;;;;;;;;;;;;;;16.15;89.36;101512.44;5075081;28;20016;-35
2021/09/11 03:36:16;;;;;;;;;;;;;;;16.14;88.96;101516.25;5074850;28;19912;-35
2021/09/11 03:38:41;;;;;;;;;;;;;;;16.14;88.99;101522.53;5074981;28;20297;-35
2021/09/11 03:41:07;;;;;;;;;;;;;;;16.13;89.18;101526.34;5074917;28;19912;-35
2021/09/11 03:43:32;;;;;;;;;;;;;;;16.14;89.15;101525.28;5074802;28;20283;-35
2021/09/11 03:45:57;;;;;;;;;;;;;;;16.14;89.56;101525.28;5074409;28;19919;-35
2021/09/11 03:48:22;;;;;;;;;;;;;;;16.16;88.99;101531.31;5074306;28;19912;-35
2021/09/11 03:50:48;;;;;;;;;;;;;;;16.18;89.55;101523.69;5074495;28;19995;-35
2021/09/11 03:53:13;;;;;;;;;;;;;;;16.18;89.90;101525.59;5074117;28;19990;-35
2021/09/11 03:55:38;;;;;;;;;;;;;;;16.16;89.74;101525.03;5074400;28;20017;-35
2021/09/11 03:58:03;;;;;;;;;;;;;;;16.16;90.06;101525.84;5074607;28;19909;-35
2021/09/11 04:00:29;;;;;;;;;;;;;;;16.16;89.93;101531.31;5073754;28;19909;-35
2021/09/11 04:02:54;;;;;;;;;;;;;;;16.15;89.63;101528.81;5074471;28;19908;-35
2021/09/11 04:05:19;;;;;;;;;;;;;;;16.17;89.45;101537.59;5073754;28;19916;-35
2021/09/11 04:07:44;;;;;;;;;;;;;;;16.17;89.80;101532.97;5073853;28;20267;-35
2021/09/11 04:10:10;;;;;;;;;;;;;;;16.16;90.01;101531.31;5073796;28;19960;-38
2021/09/11 04:12:36;;;;;;;;;;;;;;;16.15;89.70;101532.41;5074401;28;19923;-35
2021/09/11 04:15:01;;;;;;;;;;;;;;;16.16;90.04;101538.69;5073938;28;19930;-35
2021/09/11 04:17:26;;;;;;;;;;;;;;;16.15;90.21;101534.28;5074334;28;19916;-35
2021/09/11 04:19:52;;;;;;;;;;;;;;;16.16;90.00;101539.50;5074092;28;20015;-34
2021/09/11 04:22:17;;;;;;;;;;;;;;;16.18;90.04;101540.06;5073690;28;19912;-35
2021/09/11 04:24:42;;;;;;;;;;;;;;;16.19;89.88;101535.44;5073235;28;19912;-35
2021/09/11 04:27:08;;;;;;;;;;;;;;;16.17;90.51;101535.69;5073605;28;19915;-35
2021/09/11 04:29:33;;;;;;;;;;;;;;;16.17;90.27;101537.59;5073506;28;19912;-35
2021/09/11 04:31:58;;;;;;;;;;;;;;;16.16;90.60;101533.22;5072286;28;19909;-35
2021/09/11 04:34:24;;;;;;;;;;;;;;;16.14;90.17;101532.63;5073134;28;19957;-35
2021/09/11 04:36:49;;;;;;;;;;;;;;;16.14;90.20;101535.34;5073334;28;20004;-35
2021/09/11 04:39:14;;;;;;;;;;;;;;;16.15;90.09;101535.13;5073382;28;19962;-35
2021/09/11 04:41:39;;;;;;;;;;;;;;;16.16;90.36;101533.22;5073376;28;19912;-35
2021/09/11 04:44:04;;;;;;;;;;;;;;;16.16;90.39;101533.22;5073420;28;19965;-35
2021/09/11 04:46:29;;;;;;;;;;;;;;;16.15;89.97;101535.13;5074404;28;19916;-35
2021/09/11 04:48:55;;;;;;;;;;;;;;;16.18;90.35;101539.25;5073021;28;20256;-35
2021/09/11 04:51:21;;;;;;;;;;;;;;;16.17;90.46;101534.88;5073188;28;20344;-35
2021/09/11 04:53:46;;;;;;;;;;;;;;;16.18;90.37;101539.25;5073130;28;19919;-36
2021/09/11 04:56:11;;;;;;;;;;;;;;;16.20;89.88;101540.66;5073173;28;19908;-35
2021/09/11 04:58:36;;;;;;;;;;;;;;;16.22;90.15;101540.41;5073356;28;19919;-35
2021/09/11 05:01:02;;;;;;;;;;;;;;;16.22;89.67;101541.22;5073130;28;19916;-35
2021/09/11 05:03:27;;;;;;;;;;;;;;;16.23;90.02;101534.69;5073152;28;19908;-35
2021/09/11 05:05:54;;;;;;;;;;;;;;;16.22;89.96;101541.22;5072803;28;20291;-35
2021/09/11 05:08:19;;;;;;;;;;;;;;;16.20;90.01;101540.66;5072835;28;19930;-34
2021/09/11 05:10:45;;;;;;;;;;;;;;;16.19;89.94;101552.63;5072780;28;20368;-35
2021/09/11 05:13:10;;;;;;;;;;;;;;;16.21;90.25;101549.66;5073084;28;19959;-35
2021/09/11 05:15:36;;;;;;;;;;;;;;;16.18;90.60;101544.69;5073723;28;19909;-37
2021/09/11 05:18:01;;;;;;;;;;;;;;;16.19;90.55;101549.06;5072710;28;20361;-34
2021/09/11 05:20:27;;;;;;;;;;;;;;;16.19;90.54;101557.25;5072952;28;19974;-34
2021/09/11 05:22:52;;;;;;;;;;;;;;;16.18;90.34;101555.63;5072768;28;20217;-34
2021/09/11 05:25:17;;;;;;;;;;;;;;;16.15;90.01;101551.50;5073097;28;19912;-34
2021/09/11 05:27:42;;;;;;;;;;;;;;;16.17;89.84;101560.25;5073620;28;19908;-34
2021/09/11 05:30:08;;;;;;;;;;;;;;;16.18;90.02;101556.44;5072778;28;19908;-34
2021/09/11 05:32:33;;;;;;;;;;;;;;;16.18;90.50;101564.63;5071303;28;19915;-34
2021/09/11 05:34:59;;;;;;;;;;;;;;;16.18;90.34;101566.53;5072648;28;19909;-34
2021/09/11 05:37:24;;;;;;;;;;;;;;;16.17;89.92;101568.44;5072618;28;19943;-35
2021/09/11 05:39:49;;;;;;;;;;;;;;;16.18;90.22;101567.34;5072647;28;19915;-35
2021/09/11 05:42:16;;;;;;;;;;;;;;;16.18;90.10;101567.34;5072576;28;19958;-35
2021/09/11 05:44:42;;;;;;;;;;;;;;;16.17;91.04;101571.16;5075140;28;19912;-35
2021/09/11 05:47:07;;;;;;;;;;;;;;;16.17;90.28;101573.06;5077417;28;19909;-35
2021/09/11 05:49:32;;;;;;;;;;;;;;;16.20;90.32;101567.94;5076983;28;19996;-35
2021/09/11 05:51:58;;;;;;;;;;;;;;;16.26;90.01;101570.75;5077249;28;19909;-35
2021/09/11 05:54:23;;;;;;;;;;;;;;;16.33;90.40;101574.09;5076207;28;19934;-35
2021/09/11 05:56:48;;;;;;;;;;;;;;;16.35;90.56;101577.44;5076523;28;20007;-35
2021/09/11 05:59:13;;;;;;;;;;;;;;;16.36;90.40;101574.44;5076213;28;20352;-35
2021/09/11 06:01:42;;;;;;;;;;;;;;;16.40;90.10;101572.84;5076224;28;19908;-35
2021/09/11 06:04:07;;;;;;;;;;;;;;;16.43;90.56;101574.25;5076046;28;20006;-36
2021/09/11 06:06:32;;;;;;;;;;;;;;;16.46;90.36;101571.03;5076347;28;20012;-35
2021/09/11 06:08:57;;;;;;;;;;;;;;;16.47;90.21;101575.41;5076303;28;19908;-35
2021/09/11 06:11:22;;;;;;;;;;;;;;;16.48;90.56;101588.78;5075994;28;19908;-35
2021/09/11 06:13:48;;;;;;;;;;;;;;;16.49;90.96;101586.88;5075667;28;19909;-35
2021/09/11 06:16:13;;;;;;;;;;;;;;;16.51;90.60;101595.66;5076603;28;19908;-35
2021/09/11 06:18:38;;;;;;;;;;;;;;;16.54;90.45;101597.03;5076485;28;19913;-35
2021/09/11 06:21:03;;;;;;;;;;;;;;;16.53;91.10;101592.66;5076545;28;19912;-35
2021/09/11 06:23:29;;;;;;;;;;;;;;;16.53;90.58;101600.84;5076203;28;19915;-35
2021/09/11 06:25:54;;;;;;;;;;;;;;;16.53;90.68;101601.69;5076189;28;20073;-35
2021/09/11 06:28:21;;;;;;;;;;;;;;;16.55;90.79;101598.72;5075645;28;20208;-35
2021/09/11 06:30:47;;;;;;;;;;;;;;;16.55;90.72;101583.16;5075980;28;19912;-35
2021/09/11 06:33:12;;;;;;;;;;;;;;;16.56;91.00;101584.81;5075406;28;20268;-35
2021/09/11 06:35:37;;;;;;;;;;;;;;;16.55;91.01;101583.16;5075879;28;20293;-35
2021/09/11 06:38:02;;;;;;;;;;;;;;;16.56;90.84;101594.91;5075539;28;20002;-35
2021/09/11 06:40:28;;;;;;;;;;;;;;;16.56;91.01;101594.91;5075472;28;20011;-35
2021/09/11 06:42:53;;;;;;;;;;;;;;;16.57;91.24;101602.00;5075902;28;19915;-35
2021/09/11 06:45:18;;;;;;;;;;;;;;;16.60;90.92;101605.06;5075301;28;19973;-36
2021/09/11 06:47:43;;;;;;;;;;;;;;;16.64;90.88;101619.00;5076411;28;20236;-35
2021/09/11 06:50:09;;;;;;;;;;;;;;;16.69;90.44;101613.66;5075735;28;20306;-36
2021/09/11 06:52:34;;;;;;;;;;;;;;;16.70;90.53;101613.38;5075714;28;20329;-36
2021/09/11 06:54:59;;;;;;;;;;;;;;;16.72;90.53;101611.25;5075046;28;20034;-36
2021/09/11 06:57:25;;;;;;;;;;;;;;;16.75;90.55;101609.94;5075093;28;19915;-36
2021/09/11 06:59:50;;;;;;;;;;;;;;;16.77;90.37;101602.31;5075098;28;19912;-36
2021/09/11 07:02:15;;;;;;;;;;;;;;;16.82;90.60;101620.66;5075279;28;19908;-36
2021/09/11 07:04:40;;;;;;;;;;;;;;;16.87;90.23;101616.09;5090490;28;19912;-36
2021/09/11 07:07:07;;;;;;;;;;;;;;;16.88;90.48;101616.91;5075303;28;19912;-36
2021/09/11 07:09:32;;;;;;;;;;;;;;;16.92;90.17;101627.06;5074896;28;19995;-36
2021/09/11 07:11:57;;;;;;;;;;;;;;;16.96;90.49;101625.50;5075211;28;19951;-36
2021/09/11 07:14:22;;;;;;;;;;;;;;;17.00;90.13;101628.53;5075900;28;19962;-36
2021/09/11 07:16:48;;;;;;;;;;;;;;;17.02;90.26;101626.38;5075373;28;20360;-36
2021/09/11 07:19:13;;;;;;;;;;;;;;;17.08;90.44;101628.09;5075043;28;20316;-36
2021/09/11 07:21:38;;;;;;;;;;;;;;;17.07;89.91;101626.44;5074703;28;20260;-36
2021/09/11 07:24:04;;;;;;;;;;;;;;;17.06;89.99;101632.97;5074962;28;20002;-37
2021/09/11 07:26:29;;;;;;;;;;;;;;;17.08;89.82;101625.38;5074927;28;19908;-36
2021/09/11 07:28:55;;;;;;;;;;;;;;;17.14;89.88;101632.53;5074815;28;20057;-36
2021/09/11 07:31:21;;;;;;;;;;;;;;;17.19;90.14;101632.59;5075235;28;19908;-36
2021/09/11 07:33:46;;;;;;;;;;;;;;;17.22;90.07;101626.59;5074838;28;20252;-35
2021/09/11 07:36:11;;;;;;;;;;;;;;;17.27;89.79;101622.28;5074645;28;19999;-36
2021/09/11 07:38:37;;;;;;;;;;;;;;;17.34;89.76;101629.19;5074431;28;19916;-36
2021/09/11 07:41:03;;;;;;;;;;;;;;;17.41;89.39;101637.19;5074738;28;19908;-36
2021/09/11 07:43:28;;;;;;;;;;;;;;;17.47;89.00;101634.28;5075220;28;19916;-35
2021/09/11 07:45:53;;;;;;;;;;;;;;;17.53;88.68;101632.41;5074860;28;20320;-34
2021/09/11 07:48:19;;;;;;;;;;;;;;;17.59;88.76;101634.09;5074841;28;19962;-34
2021/09/11 07:50:44;;;;;;;;;;;;;;;17.66;88.66;101634.72;5075148;28;19931;-34
2021/09/11 07:53:09;;;;;;;;;;;;;;;17.72;88.61;101630.13;5074302;28;20317;-34
2021/09/11 07:55:34;;;;;;;;;;;;;;;17.76;88.48;101639.47;5074897;28;19909;-34
2021/09/11 07:58:00;;;;;;;;;;;;;;;17.81;88.30;101633.22;5074483;28;19962;-34
2021/09/11 08:00:26;;;;;;;;;;;;;;;17.83;88.72;101642.84;5074191;28;19912;-34
2021/09/11 08:02:51;;;;;;;;;;;;;;;17.92;88.91;101637.72;5074080;28;19943;-34
2021/09/11 08:05:16;;;;;;;;;;;;;;;17.98;87.88;101640.22;5073998;28;19959;-34
2021/09/11 08:07:42;;;;;;;;;;;;;;;18.03;87.50;101644.91;5073379;28;20397;-34
2021/09/11 08:10:07;;;;;;;;;;;;;;;18.00;87.10;101634.50;5074071;28;20374;-34
2021/09/11 08:12:33;;;;;;;;;;;;;;;17.99;87.22;101647.34;5073924;28;19912;-34
2021/09/11 08:14:59;;;;;;;;;;;;;;;18.00;87.25;101642.69;5074231;28;19999;-34
2021/09/11 08:17:24;;;;;;;;;;;;;;;18.05;87.34;101650.94;5074392;28;20197;-34
2021/09/11 08:19:50;;;;;;;;;;;;;;;18.09;87.43;101656.72;5073494;28;19912;-34
2021/09/11 08:22:16;;;;;;;;;;;;;;;18.15;87.60;101655.69;5073830;28;20023;-34
2021/09/11 08:24:41;;;;;;;;;;;;;;;18.18;86.25;101657.91;5073972;28;19952;-34
2021/09/11 08:27:06;;;;;;;;;;;;;;;18.20;86.73;101653.84;5073834;28;20295;-34
2021/09/11 08:29:32;;;;;;;;;;;;;;;18.21;85.99;101655.47;5073707;28;20242;-34
2021/09/11 08:31:57;;;;;;;;;;;;;;;18.17;86.62;101662.56;5073730;28;20416;-34
2021/09/11 08:34:23;;;;;;;;;;;;;;;18.18;86.67;101666.94;5073642;28;19931;-36
2021/09/11 08:36:48;;;;;;;;;;;;;;;18.21;86.44;101666.41;5074505;28;19908;-34
2021/09/11 08:39:13;;;;;;;;;;;;;;;18.26;86.83;101673.84;5074152;28;20271;-34
2021/09/11 08:41:39;;;;;;;;;;;;;;;18.31;86.94;101667.59;5073665;28;19912;-34
2021/09/11 08:44:04;;;;;;;;;;;;;;;18.36;86.52;101667.63;5073654;28;19908;-34
2021/09/11 08:46:29;;;;;;;;;;;;;;;18.37;86.13;101672.00;5073096;28;19965;-34
2021/09/11 08:48:55;;;;;;;;;;;;;;;18.38;86.31;101671.75;5072211;28;19933;-34
2021/09/11 08:51:20;;;;;;;;;;;;;;;18.41;86.06;101673.97;5074001;28;19915;-35
2021/09/11 08:53:46;;;;;;;;;;;;;;;18.43;86.00;101673.69;5073522;28;19912;-35
2021/09/11 08:56:11;;;;;;;;;;;;;;;18.45;86.19;101674.25;5073234;28;19931;-35
2021/09/11 08:58:36;;;;;;;;;;;;;;;18.46;85.95;101679.47;5073420;28;19912;-35
2021/09/11 09:01:02;;;;;;;;;;;;;;;18.46;86.27;101684.13;5073474;28;19908;-35
2021/09/11 09:03:30;;;;;;;;;;;;;;;18.48;86.26;101682.75;5073137;28;19915;-35
2021/09/11 09:06:07;;;;;;;;;;;;;;;18.50;86.21;101690.72;5074089;28;19914;-35
2021/09/11 09:08:33;;;;;;;;;;;;;;;18.48;86.04;101693.72;5073428;28;19913;-35
2021/09/11 09:11:12;;;;;;;;;;;;;;;18.44;85.95;101698.06;5073614;28;19932;-35
2021/09/11 09:13:53;;;;;;;;;;;;;;;18.44;86.39;101697.22;5073904;28;19915;-35
2021/09/11 09:16:18;;;;;;;;;;;;;;;18.43;86.23;101698.34;5073764;28;19915;-35
2021/09/11 09:18:43;;;;;;;;;;;;;;;18.40;86.20;101696.97;5075864;28;19912;-35
2021/09/11 09:21:29;;;;;;;;;;;;;;;18.32;86.22;101697.44;5077997;28;20367;-35
2021/09/11 09:23:59;;;;;;;;;;;;;;;18.30;86.40;101696.88;5077423;28;19908;-35
2021/09/11 09:26:25;;;;;;;;;;;;;;;18.24;86.87;101698.72;5077579;28;19916;-35
2021/09/11 09:28:57;;;;;;;;;;;;;;;18.24;86.88;101696.00;5077010;28;19908;-35
2021/09/11 09:31:23;;;;;;;;;;;;;;;18.23;86.99;101701.75;5077878;28;19915;-35
2021/09/11 09:33:48;;;;;;;;;;;;;;;18.24;86.84;101700.66;5077045;28;20275;-35
2021/09/11 09:36:13;;;;;;;;;;;;;;;18.25;86.98;101703.16;5077299;28;19908;-36
2021/09/11 09:38:42;;;;;;;;;;;;;;;18.27;86.95;101698.22;5076974;28;20303;-35
2021/09/11 09:41:09;;;;;;;;;;;;;;;18.34;86.86;101708.13;5077227;28;20298;-35
2021/09/11 09:43:42;;;;;;;;;;;;;;;18.36;87.01;101705.97;5076756;28;19931;-35
2021/09/11 09:46:13;;;;;;;;;;;;;;;18.33;87.14;101692.78;5077539;28;19919;-35
2021/09/11 09:48:39;;;;;;;;;;;;;;;18.43;87.15;101706.53;5076732;28;19908;-35
2021/09/11 09:51:06;;;;;;;;;;;;;;;18.53;87.50;101704.69;5076946;28;19915;-35
2021/09/11 09:53:32;;;;;;;;;;;;;;;18.64;86.97;101697.41;5077203;28;19957;-35
2021/09/11 09:55:57;;;;;;;;;;;;;;;18.76;86.77;101706.25;5076690;28;19908;-35
2021/09/11 09:58:22;;;;;;;;;;;;;;;18.82;86.15;101700.81;5076498;28;20229;-35
2021/09/11 10:00:48;;;;;;;;;;;;;;;18.83;85.65;101697.78;5076906;28;19908;-35
2021/09/11 10:03:13;;;;;;;;;;;;;;;18.87;85.87;101692.63;5076923;28;19908;-35
2021/09/11 10:05:43;;;;;;;;;;;;;;;18.93;86.12;101697.84;5075039;28;19908;-35
2021/09/11 10:08:11;;;;;;;;;;;;;;;19.00;85.37;101692.97;5054696;28;19909;-35
2021/09/11 10:10:41;;;;;;;;;;;;;;;19.12;85.34;101692.72;5056491;28;20306;-35
2021/09/11 10:13:11;;;;;;;;;;;;;;;19.20;85.11;101692.22;5056408;28;19948;-35
2021/09/11 10:15:37;;;;;;;;;;;;;;;19.27;85.04;101701.00;5056921;28;20325;-35
2021/09/11 10:18:22;;;;;;;;;;;;;;;19.35;84.34;101691.44;5056547;28;19912;-36
2021/09/11 10:21:06;;;;;;;;;;;;;;;19.40;84.38;101683.25;5055832;28;19977;-35
2021/09/11 10:23:31;;;;;;;;;;;;;;;19.43;83.98;101687.38;5056420;28;19954;-35
2021/09/11 10:25:56;;;;;;;;;;;;;;;19.45;83.50;101683.25;5056457;28;20388;-36
2021/09/11 10:28:22;;;;;;;;;;;;;;;19.52;83.16;101683.00;5055820;28;20305;-37
2021/09/11 10:31:06;;;;;;;;;;;;;;;19.61;83.40;101684.13;5055746;28;19943;-36
2021/09/11 10:33:46;;;;;;;;;;;;;;;19.72;82.78;101680.34;5056021;28;19908;-35
2021/09/11 10:36:17;;;;;;;;;;;;;;;19.76;82.97;101673.22;5056042;28;19920;-36
2021/09/11 10:38:42;;;;;;;;;;;;;;;19.75;83.03;101688.00;5055484;28;19919;-35
2021/09/11 10:41:11;;;;;;;;;;;;;;;19.74;82.74;101678.13;5056061;28;19913;-35
2021/09/11 10:43:36;;;;;;;;;;;;;;;19.73;82.46;101679.25;5054784;28;19916;-35
2021/09/11 10:46:04;;;;;;;;;;;;;;;19.74;82.33;101674.56;5055381;28;19912;-35
2021/09/11 10:48:48;;;;;;;;;;;;;;;19.82;83.03;101678.72;5055457;28;19913;-36
2021/09/11 10:51:30;;;;;;;;;;;;;;;19.93;81.73;101675.69;5055666;28;20062;-35
2021/09/11 10:54:09;;;;;;;;;;;;;;;20.00;81.92;101680.91;5054998;28;19912;-36
2021/09/11 10:56:35;;;;;;;;;;;;;;;20.09;81.87;101670.19;5036455;28;20256;-35
2021/09/11 10:59:15;;;;;;;;;;;;;;;20.11;82.17;101673.50;5036226;28;19909;-35
2021/09/11 11:01:52;;;;;;;;;;;;;;;20.07;81.81;101675.97;5035461;28;19916;-35
2021/09/11 11:04:23;;;;;;;;;;;;;;;20.02;81.84;101685.03;5035545;28;20264;-35
2021/09/11 11:06:50;;;;;;;;;;;;;;;19.96;81.76;101677.06;5035387;28;20010;-35
2021/09/11 11:09:18;;;;;;;;;;;;;;;20.00;81.50;101678.16;5035376;28;19909;-35
2021/09/11 11:11:43;;;;;;;;;;;;;;;20.05;80.88;101675.41;5035580;28;19909;-35
2021/09/11 11:14:08;;;;;;;;;;;;;;;20.13;80.27;101677.63;5035271;28;20062;-35
2021/09/11 11:16:50;;;;;;;;;;;;;;;20.20;80.56;101680.91;5035367;28;19909;-35
2021/09/11 11:19:26;;;;;;;;;;;;;;;20.24;79.86;101678.44;5033940;28;20399;-35
2021/09/11 11:22:03;;;;;;;;;;;;;;;20.23;79.67;101674.88;5035388;28;20071;-36
2021/09/11 11:24:30;;;;;;;;;;;;;;;20.24;79.49;101679.25;5034791;28;20318;-36
2021/09/11 11:26:58;;;;;;;;;;;;;;;20.27;79.79;101672.41;5035029;28;19908;-36
2021/09/11 11:29:24;;;;;;;;;;;;;;;20.29;79.74;101673.75;5034629;28;19909;-36
2021/09/11 11:31:49;;;;;;;;;;;;;;;20.31;79.99;101677.06;5035029;28;20300;-36
2021/09/11 11:34:15;;;;;;;;;;;;;;;20.32;79.29;101672.41;5034855;28;19913;-36
2021/09/11 11:36:56;;;;;;;;;;;;;;;20.27;79.68;101670.47;5034586;28;19909;-36
2021/09/11 11:39:27;;;;;;;;;;;;;;;20.22;79.52;101673.22;5034979;28;19909;-36
2021/09/11 11:42:12;;;;;;;;;;;;;;;20.16;80.30;101679.81;5035452;28;19916;-36
2021/09/11 11:44:42;;;;;;;;;;;;;;;20.09;80.61;101679.25;5039229;28;20400;-36
2021/09/11 11:47:07;;;;;;;;;;;;;;;19.96;81.21;101682.53;5034603;28;20392;-35
2021/09/11 11:49:33;;;;;;;;;;;;;;;19.87;81.50;101682.28;5034642;28;19956;-36
2021/09/11 11:51:59;;;;;;;;;;;;;;;19.80;81.98;101679.78;5035024;28;19909;-36
2021/09/11 11:54:25;;;;;;;;;;;;;;;19.82;82.16;101678.72;5035104;28;20312;-36
2021/09/11 11:56:51;;;;;;;;;;;;;;;19.83;82.80;101681.19;5034288;28;19954;-36
2021/09/11 11:59:23;;;;;;;;;;;;;;;19.88;82.90;101688.59;5034260;28;19956;-36
2021/09/11 12:01:48;;;;;;;;;;;;;;;19.91;82.77;101686.13;5034691;28;19909;-36
2021/09/11 12:04:17;;;;;;;;;;;;;;;19.95;82.77;101683.66;5034696;28;19909;-36
2021/09/11 12:06:47;;;;;;;;;;;;;;;20.01;83.38;101682.56;5034086;28;19915;-36
2021/09/11 12:09:13;;;;;;;;;;;;;;;20.12;82.97;101686.97;5034278;28;19908;-35
2021/09/11 12:11:40;;;;;;;;;;;;;;;20.14;82.67;101679.25;5034916;28;19963;-36
2021/09/11 12:14:05;;;;;;;;;;;;;;;20.17;83.19;101681.47;5034129;28;20372;-36
2021/09/11 12:16:31;;;;;;;;;;;;;;;20.28;83.48;101687.78;5034451;28;19909;-36
2021/09/11 12:19:18;;;;;;;;;;;;;;;20.47;83.25;101686.13;5034500;28;20436;-35
2021/09/11 12:21:43;;;;;;;;;;;;;;;20.65;82.42;101681.16;5034932;28;20007;-36
2021/09/11 12:24:25;;;;;;;;;;;;;;;20.73;81.86;101684.16;5034849;28;20242;-36
2021/09/11 12:26:50;;;;;;;;;;;;;;;20.83;82.17;101677.81;5034286;28;19908;-36
2021/09/11 12:29:17;;;;;;;;;;;;;;;20.91;81.40;101679.16;5033981;28;20270;-36
2021/09/11 12:31:55;;;;;;;;;;;;;;;21.05;80.50;101677.47;5033718;28;19991;-36